createdAt,value
2022-09-21T00:01:32.006Z,18.70
2022-09-21T00:04:01.303Z,18.70
2022-09-21T00:06:31.115Z,18.70
2022-09-21T00:08:59.089Z,18.70
2022-09-21T00:11:29.878Z,18.60
2022-09-21T00:14:00.697Z,18.70
2022-09-21T00:16:29.482Z,18.50
2022-09-21T00:18:57.383Z,18.70
2022-09-21T00:21:25.381Z,18.70
2022-09-21T00:23:54.230Z,18.70
2022-09-21T00:26:24.746Z,18.70
2022-09-21T00:28:55.419Z,18.70
2022-09-21T00:31:23.467Z,18.70
2022-09-21T00:33:52.403Z,18.50
2022-09-21T00:36:22.486Z,18.50
2022-09-21T00:38:52.435Z,18.50
2022-09-21T00:41:21.434Z,18.50
2022-09-21T00:44:07.085Z,18.50
2022-09-21T00:46:39.957Z,18.60
2022-09-21T00:49:08.389Z,18.50
2022-09-21T00:51:37.139Z,18.60
2022-09-21T00:54:09.098Z,18.40
2022-09-21T00:56:38.151Z,18.30
2022-09-21T00:59:07.236Z,18.30
2022-09-21T01:01:38.304Z,18.50
2022-09-21T01:04:06.970Z,18.30
2022-09-21T01:06:35.675Z,18.40
2022-09-21T01:09:03.524Z,18.50
2022-09-21T01:11:39.444Z,18.60
2022-09-21T01:14:25.714Z,18.70
2022-09-21T01:17:03.435Z,18.50
2022-09-21T01:20:06.491Z,18.50
2022-09-21T01:22:47.133Z,18.60
2022-09-21T01:25:28.838Z,18.70
2022-09-21T01:28:08.653Z,18.70
2022-09-21T01:30:43.729Z,18.40
2022-09-21T01:33:18.805Z,18.40
2022-09-21T01:35:50.155Z,18.50
2022-09-21T01:38:23.907Z,18.50
2022-09-21T01:40:56.840Z,18.50
2022-09-21T01:43:35.012Z,18.60
2022-09-21T01:46:07.167Z,18.50
2022-09-21T01:48:39.471Z,18.40
2022-09-21T01:51:11.069Z,18.40
2022-09-21T01:53:43.127Z,18.40
2022-09-21T01:56:14.015Z,18.40
2022-09-21T01:58:46.908Z,18.50
2022-09-21T02:01:20.532Z,18.50
2022-09-21T02:03:52.267Z,18.60
2022-09-21T02:06:20.656Z,18.50
2022-09-21T02:08:49.369Z,18.40
2022-09-21T02:11:17.204Z,18.20
2022-09-21T02:13:49.055Z,18.20
2022-09-21T02:16:35.479Z,18.40
2022-09-21T02:19:13.188Z,18.40
2022-09-21T02:21:50.262Z,18.40
2022-09-21T02:24:25.098Z,18.50
2022-09-21T02:27:00.472Z,18.40
2022-09-21T02:29:36.310Z,18.40
2022-09-21T02:32:11.895Z,18.30
2022-09-21T02:34:46.369Z,18.30
2022-09-21T02:37:22.347Z,18.40
2022-09-21T02:39:59.402Z,18.50
2022-09-21T02:42:30.802Z,18.50
2022-09-21T02:45:05.826Z,18.40
2022-09-21T02:47:40.032Z,18.60
2022-09-21T02:50:13.918Z,18.40
2022-09-21T02:52:44.476Z,18.20
2022-09-21T02:55:14.132Z,18.20
2022-09-21T02:57:42.463Z,18.20
2022-09-21T03:00:12.113Z,18.30
2022-09-21T03:02:44.836Z,18.40
2022-09-21T03:05:14.011Z,18.50
2022-09-21T03:07:42.473Z,18.50
2022-09-21T03:10:11.040Z,18.50
2022-09-21T03:12:38.865Z,18.50
2022-09-21T03:15:07.426Z,18.40
2022-09-21T03:17:35.161Z,18.50
2022-09-21T03:20:04.756Z,18.50
2022-09-21T03:22:32.541Z,18.50
2022-09-21T03:25:00.314Z,18.30
2022-09-21T03:27:28.081Z,18.30
2022-09-21T03:29:59.985Z,18.20
2022-09-21T03:32:29.701Z,18.30
2022-09-21T03:34:57.547Z,18.30
2022-09-21T03:37:26.727Z,18.30
2022-09-21T03:39:54.488Z,18.20
2022-09-21T03:42:22.318Z,18.30
2022-09-21T03:44:50.097Z,18.30
2022-09-21T03:47:17.865Z,18.40
2022-09-21T03:49:45.575Z,18.40
2022-09-21T03:52:13.405Z,18.30
2022-09-21T03:54:42.561Z,18.30
2022-09-21T03:57:10.329Z,18.40
2022-09-21T03:59:38.064Z,18.20
2022-09-21T04:02:06.017Z,18.30
2022-09-21T04:04:33.804Z,18.30
2022-09-21T04:07:01.641Z,18.40
2022-09-21T04:09:29.395Z,18.30
2022-09-21T04:11:58.677Z,18.20
2022-09-21T04:14:27.010Z,18.30
2022-09-21T04:16:54.818Z,18.30
2022-09-21T04:19:22.823Z,18.30
2022-09-21T04:21:51.332Z,18.30
2022-09-21T04:24:19.589Z,18.20
2022-09-21T04:26:47.629Z,18.10
2022-09-21T04:29:17.209Z,18.10
2022-09-21T04:31:45.040Z,18.10
2022-09-21T04:34:14.588Z,18.20
2022-09-21T04:36:42.404Z,18.10
2022-09-21T04:39:10.154Z,18.00
2022-09-21T04:41:38.029Z,18.00
2022-09-21T04:44:05.995Z,17.90
2022-09-21T04:46:35.359Z,18.10
2022-09-21T04:49:03.143Z,18.00
2022-09-21T04:51:31.477Z,18.00
2022-09-21T04:53:59.790Z,18.00
2022-09-21T04:56:27.628Z,18.10
2022-09-21T04:58:55.458Z,18.20
2022-09-21T05:01:23.448Z,18.20
2022-09-21T05:03:52.836Z,18.30
2022-09-21T05:06:20.781Z,18.20
2022-09-21T05:09:06.342Z,18.30
2022-09-21T05:11:34.084Z,18.20
2022-09-21T05:14:01.878Z,18.20
2022-09-21T05:16:29.677Z,18.20
2022-09-21T05:18:58.753Z,18.20
2022-09-21T05:21:27.051Z,18.20
2022-09-21T05:23:55.847Z,18.10
2022-09-21T05:26:23.863Z,18.20
2022-09-21T05:28:52.105Z,18.00
2022-09-21T05:31:33.585Z,17.90
2022-09-21T05:34:10.986Z,18.00
2022-09-21T05:36:49.455Z,17.90
2022-09-21T05:39:17.744Z,17.90
2022-09-21T05:41:45.997Z,17.90
2022-09-21T05:44:15.236Z,17.90
2022-09-21T05:46:52.699Z,18.00
2022-09-21T05:49:37.353Z,18.00
2022-09-21T05:52:14.860Z,18.00
2022-09-21T05:54:53.338Z,18.00
2022-09-21T05:57:30.773Z,18.00
2022-09-21T06:00:08.824Z,18.10
2022-09-21T06:02:55.636Z,18.10
2022-09-21T06:05:25.783Z,17.50
2022-09-21T06:07:53.597Z,16.90
2022-09-21T06:10:21.449Z,16.60
2022-09-21T06:12:49.203Z,16.60
2022-09-21T06:15:17.707Z,16.70
2022-09-21T06:17:45.540Z,17.00
2022-09-21T06:20:13.392Z,16.60
2022-09-21T06:22:42.506Z,16.70
2022-09-21T06:25:10.716Z,16.40
2022-09-21T06:27:38.516Z,16.30
2022-09-21T06:30:10.037Z,17.00
2022-09-21T06:32:37.772Z,16.90
2022-09-21T06:35:06.272Z,16.50
2022-09-21T06:37:34.118Z,16.20
2022-09-21T06:40:03.603Z,16.60
2022-09-21T06:42:31.483Z,16.80
2022-09-21T06:44:59.400Z,16.80
2022-09-21T06:47:27.143Z,16.70
2022-09-21T06:49:54.861Z,16.80
2022-09-21T06:52:22.666Z,17.00
2022-09-21T06:54:50.475Z,16.60
2022-09-21T06:57:19.557Z,16.20
2022-09-21T06:59:47.413Z,16.00
2022-09-21T07:02:15.328Z,15.90
2022-09-21T07:04:43.990Z,15.80
2022-09-21T07:07:11.810Z,16.00
2022-09-21T07:12:29.172Z,16.20
2022-09-21T07:14:57.100Z,16.20
2022-09-21T07:17:24.975Z,16.10
2022-09-21T07:19:52.727Z,16.10
2022-09-21T07:22:20.464Z,16.40
2022-09-21T07:24:48.289Z,16.30
2022-09-21T07:27:16.086Z,16.10
2022-09-21T07:29:45.189Z,16.30
2022-09-21T07:32:13.835Z,16.60
2022-09-21T07:34:41.592Z,17.00
2022-09-21T07:37:09.551Z,17.40
2022-09-21T07:39:38.800Z,17.80
2022-09-21T07:42:07.024Z,18.00
2022-09-21T07:44:35.086Z,18.20
2022-09-21T07:47:04.340Z,18.20
2022-09-21T07:49:32.196Z,18.50
2022-09-21T07:52:03.853Z,18.50
2022-09-21T07:54:33.645Z,18.50
2022-09-21T07:57:19.214Z,18.60
2022-09-21T07:59:47.078Z,18.70
2022-09-21T08:02:16.258Z,18.80
2022-09-21T08:04:44.080Z,19.00
2022-09-21T08:07:12.485Z,19.00
2022-09-21T08:09:40.721Z,19.10
2022-09-21T08:12:08.857Z,19.20
2022-09-21T08:14:36.617Z,19.20
2022-09-21T08:17:04.453Z,19.20
2022-09-21T08:19:34.548Z,19.10
2022-09-21T08:22:02.353Z,19.20
2022-09-21T08:24:31.257Z,19.40
2022-09-21T08:26:59.048Z,19.30
2022-09-21T08:29:27.576Z,19.40
2022-09-21T08:31:55.488Z,19.50
2022-09-21T08:34:24.116Z,19.80
2022-09-21T08:36:55.757Z,19.70
2022-09-21T08:39:23.836Z,19.70
2022-09-21T08:42:01.576Z,19.70
2022-09-21T08:44:33.936Z,19.70
2022-09-21T08:47:07.483Z,19.70
2022-09-21T08:49:37.910Z,19.70
2022-09-21T08:52:15.324Z,19.80
2022-09-21T08:54:49.948Z,20.00
2022-09-21T08:57:19.220Z,20.10
2022-09-21T08:59:48.705Z,19.90
2022-09-21T09:02:38.331Z,19.90
2022-09-21T09:05:24.708Z,20.00
2022-09-21T09:08:19.432Z,20.10
2022-09-21T09:10:59.683Z,19.90
2022-09-21T09:13:49.459Z,20.10
2022-09-21T09:16:25.505Z,20.00
2022-09-21T09:18:55.790Z,19.90
2022-09-21T09:21:31.865Z,19.80
2022-09-21T09:24:05.129Z,19.70
2022-09-21T09:26:39.748Z,19.80
2022-09-21T09:29:18.320Z,20.00
2022-09-21T09:31:46.747Z,19.80
2022-09-21T09:34:20.685Z,20.10
2022-09-21T09:36:58.766Z,20.30
2022-09-21T09:39:30.800Z,20.60
2022-09-21T09:42:31.597Z,20.40
2022-09-21T09:45:19.637Z,20.30
2022-09-21T09:48:04.187Z,20.40
2022-09-21T09:50:35.648Z,20.60
2022-09-21T09:53:07.300Z,20.80
2022-09-21T09:55:43.579Z,21.00
2022-09-21T09:58:19.048Z,21.00
2022-09-21T10:00:54.181Z,21.10
2022-09-21T10:03:24.321Z,21.20
2022-09-21T10:05:52.645Z,21.10
2022-09-21T10:08:41.931Z,21.20
2022-09-21T10:11:13.002Z,21.00
2022-09-21T10:13:43.154Z,21.00
2022-09-21T10:16:15.228Z,21.10
2022-09-21T10:18:48.401Z,21.00
2022-09-21T10:21:24.076Z,21.10
2022-09-21T10:23:56.186Z,20.90
2022-09-21T10:26:25.358Z,20.80
2022-09-21T10:28:58.275Z,20.90
2022-09-21T10:31:27.725Z,20.70
2022-09-21T10:34:07.470Z,20.80
2022-09-21T10:36:36.584Z,20.90
2022-09-21T10:39:25.751Z,20.90
2022-09-21T10:41:59.322Z,20.80
2022-09-21T10:44:30.738Z,20.80
2022-09-21T10:47:01.872Z,20.90
2022-09-21T10:49:30.318Z,20.80
2022-09-21T10:52:00.012Z,20.90
2022-09-21T10:54:30.161Z,20.90
2022-09-21T10:57:03.172Z,20.60
2022-09-21T10:59:32.779Z,20.60
2022-09-21T11:02:02.967Z,20.80
2022-09-21T11:04:41.558Z,20.80
2022-09-21T11:07:17.250Z,20.50
2022-09-21T11:09:51.683Z,20.20
2022-09-21T11:12:40.218Z,20.20
2022-09-21T11:15:17.924Z,20.50
2022-09-21T11:17:50.347Z,20.70
2022-09-21T11:20:28.980Z,20.60
2022-09-21T11:23:05.281Z,20.50
2022-09-21T11:25:41.945Z,20.70
2022-09-21T11:28:19.378Z,20.60
2022-09-21T11:31:21.132Z,20.60
2022-09-21T11:34:04.824Z,20.60
2022-09-21T11:36:42.212Z,20.40
2022-09-21T11:39:19.839Z,20.20
2022-09-21T11:42:00.290Z,20.20
2022-09-21T11:44:41.452Z,20.10
2022-09-21T11:47:29.213Z,20.10
2022-09-21T11:50:36.628Z,20.20
2022-09-21T11:53:25.309Z,20.10
2022-09-21T11:56:15.771Z,20.10
2022-09-21T11:58:57.598Z,20.00
2022-09-21T12:01:43.539Z,19.90
2022-09-21T12:04:28.707Z,19.90
2022-09-21T12:07:07.872Z,19.90
2022-09-21T12:09:52.647Z,19.80
2022-09-21T12:12:24.584Z,20.00
2022-09-21T12:14:59.559Z,20.10
2022-09-21T12:17:38.392Z,20.00
2022-09-21T12:20:13.106Z,19.90
2022-09-21T12:22:44.560Z,20.10
2022-09-21T12:25:17.869Z,20.20
2022-09-21T12:27:50.272Z,20.20
2022-09-21T12:30:20.913Z,20.30
2022-09-21T12:32:58.172Z,20.00
2022-09-21T12:35:30.314Z,19.90
2022-09-21T12:38:04.016Z,19.80
2022-09-21T12:40:38.979Z,19.70
2022-09-21T12:43:17.100Z,19.60
2022-09-21T12:45:52.013Z,19.50
2022-09-21T12:48:31.631Z,19.50
2022-09-21T12:51:06.386Z,19.40
2022-09-21T12:53:37.679Z,19.40
2022-09-21T12:56:10.243Z,19.30
2022-09-21T12:58:58.403Z,19.40
2022-09-21T13:01:32.616Z,19.40
2022-09-21T13:04:28.906Z,19.40
2022-09-21T13:07:20.433Z,19.30
2022-09-21T13:09:50.543Z,19.30
2022-09-21T13:12:22.655Z,19.10
2022-09-21T13:14:52.735Z,19.20
2022-09-21T13:17:24.299Z,19.20
2022-09-21T13:20:02.359Z,19.20
2022-09-21T13:22:33.329Z,19.40
2022-09-21T13:25:09.271Z,19.50
2022-09-21T13:28:15.011Z,19.80
2022-09-21T13:30:45.087Z,20.00
2022-09-21T13:33:38.775Z,20.00
2022-09-21T13:36:27.580Z,20.00
2022-09-21T13:39:20.582Z,19.70
2022-09-21T13:42:04.191Z,19.50
2022-09-21T13:44:43.484Z,19.40
2022-09-21T13:47:14.438Z,19.20
2022-09-21T13:49:50.666Z,19.10
2022-09-21T13:52:40.333Z,19.00
2022-09-21T13:55:29.027Z,19.00
2022-09-21T13:57:59.786Z,19.00
2022-09-21T14:00:36.899Z,19.10
2022-09-21T14:03:18.796Z,19.10
2022-09-21T14:05:48.629Z,19.10
2022-09-21T14:08:25.784Z,19.10
2022-09-21T14:10:56.953Z,19.10
2022-09-21T14:13:29.467Z,19.10
2022-09-21T14:16:52.027Z,19.00
2022-09-21T14:20:02.859Z,19.00
2022-09-21T14:22:40.955Z,19.00
2022-09-21T14:25:50.661Z,19.00
2022-09-21T14:28:20.617Z,19.00
2022-09-21T14:30:56.626Z,19.00
2022-09-21T14:33:31.495Z,19.00
2022-09-21T14:36:03.464Z,19.00
2022-09-21T14:38:37.339Z,19.10
2022-09-21T14:41:08.708Z,19.00
2022-09-21T14:43:39.678Z,19.00
2022-09-21T14:46:25.457Z,19.00
2022-09-21T14:49:06.795Z,19.00
2022-09-21T14:51:45.638Z,19.00
2022-09-21T14:54:31.299Z,19.00
2022-09-21T14:57:35.127Z,19.00
2022-09-21T15:00:23.249Z,19.00
2022-09-21T15:03:06.176Z,18.90
2022-09-21T15:05:38.347Z,19.00
2022-09-21T15:08:49.894Z,19.00
2022-09-21T15:11:24.986Z,19.00
2022-09-21T15:14:20.608Z,19.00
2022-09-21T15:16:51.673Z,19.00
2022-09-21T15:19:26.073Z,19.00
2022-09-21T15:21:55.485Z,19.00
2022-09-21T15:24:27.685Z,19.00
2022-09-21T15:27:03.464Z,19.00
2022-09-21T15:29:34.457Z,19.00
2022-09-21T15:32:02.691Z,19.00
2022-09-21T15:34:31.087Z,18.90
2022-09-21T15:37:09.186Z,18.90
2022-09-21T15:39:37.031Z,18.90
2022-09-21T15:42:19.581Z,19.00
2022-09-21T15:44:50.462Z,19.00
2022-09-21T15:47:21.761Z,19.00
2022-09-21T15:49:51.650Z,19.00
2022-09-21T15:52:27.612Z,18.90
2022-09-21T15:55:00.304Z,18.90
2022-09-21T15:57:39.168Z,19.00
2022-09-21T16:00:22.310Z,19.00
2022-09-21T16:03:04.125Z,19.00
2022-09-21T16:05:34.348Z,19.00
2022-09-21T16:08:07.172Z,19.00
2022-09-21T16:10:40.991Z,19.00
2022-09-21T16:13:38.926Z,19.00
2022-09-21T16:16:10.614Z,19.00
2022-09-21T16:18:44.305Z,19.00
2022-09-21T16:21:23.432Z,18.90
2022-09-21T16:23:54.621Z,18.90
2022-09-21T16:26:25.718Z,18.90
2022-09-21T16:29:19.303Z,19.00
2022-09-21T16:31:50.326Z,18.90
2022-09-21T16:34:36.743Z,18.90
2022-09-21T16:37:25.106Z,18.90
2022-09-21T16:39:53.847Z,18.90
2022-09-21T16:42:22.873Z,18.90
2022-09-21T16:44:51.317Z,18.90
2022-09-21T16:47:25.217Z,18.90
2022-09-21T16:49:56.295Z,18.90
2022-09-21T16:52:24.755Z,18.90
2022-09-21T16:54:52.624Z,18.90
2022-09-21T16:57:21.326Z,18.90
2022-09-21T16:59:50.223Z,18.80
2022-09-21T17:02:19.839Z,18.80
2022-09-21T17:04:48.310Z,18.90
2022-09-21T17:07:18.808Z,18.90
2022-09-21T17:09:48.175Z,18.80
2022-09-21T17:12:18.112Z,18.80
2022-09-21T17:14:47.283Z,18.80
2022-09-21T17:17:22.173Z,18.80
2022-09-21T17:19:53.853Z,18.70
2022-09-21T17:22:24.965Z,18.70
2022-09-21T17:24:54.645Z,18.70
2022-09-21T17:27:25.199Z,18.70
2022-09-21T17:29:55.098Z,18.70
2022-09-21T17:32:25.257Z,18.60
2022-09-21T17:34:58.530Z,18.60
2022-09-21T17:37:26.730Z,18.60
2022-09-21T17:39:54.531Z,18.60
2022-09-21T17:42:25.567Z,18.60
2022-09-21T17:45:12.278Z,18.60
2022-09-21T17:47:42.455Z,18.60
2022-09-21T17:50:22.819Z,18.50
2022-09-21T17:53:08.900Z,18.50
2022-09-21T17:55:37.373Z,18.40
2022-09-21T17:58:39.763Z,18.40
2022-09-21T18:01:09.465Z,18.30
2022-09-21T18:03:41.010Z,18.40
2022-09-21T18:06:10.253Z,18.30
2022-09-21T18:08:40.200Z,18.30
2022-09-21T18:11:29.356Z,18.30
2022-09-21T18:14:05.501Z,18.30
2022-09-21T18:16:40.902Z,18.20
2022-09-21T18:19:26.636Z,18.00
2022-09-21T18:22:03.070Z,18.10
2022-09-21T18:24:33.593Z,18.20
2022-09-21T18:27:02.318Z,18.20
2022-09-21T18:29:39.951Z,18.20
2022-09-21T18:32:28.893Z,18.10
2022-09-21T18:35:16.451Z,18.10
2022-09-21T18:37:56.065Z,18.10
2022-09-21T18:40:31.290Z,18.00
2022-09-21T18:43:06.084Z,18.00
2022-09-21T18:45:38.567Z,18.00
2022-09-21T18:48:29.525Z,18.10
2022-09-21T18:51:04.765Z,18.00
2022-09-21T18:53:44.786Z,18.00
2022-09-21T18:56:13.431Z,18.00
2022-09-21T18:58:42.667Z,18.00
2022-09-21T19:01:13.193Z,18.00
2022-09-21T19:03:43.316Z,18.10
2022-09-21T19:06:27.245Z,18.00
2022-09-21T19:09:03.428Z,18.00
2022-09-21T19:11:38.060Z,17.80
2022-09-21T19:14:14.601Z,17.80
2022-09-21T19:16:53.022Z,17.80
2022-09-21T19:19:32.335Z,17.70
2022-09-21T19:22:07.741Z,17.60
2022-09-21T19:24:44.021Z,17.60
2022-09-21T19:27:19.147Z,17.60
2022-09-21T19:29:57.069Z,17.60
2022-09-21T19:32:35.816Z,17.60
2022-09-21T19:35:16.609Z,17.50
2022-09-21T19:37:47.024Z,17.60
2022-09-21T19:40:15.582Z,17.50
2022-09-21T19:43:03.775Z,17.60
2022-09-21T19:45:45.012Z,17.50
2022-09-21T19:48:16.068Z,17.60
2022-09-21T19:50:48.361Z,17.60
2022-09-21T19:53:50.213Z,17.50
2022-09-21T19:56:36.245Z,17.50
2022-09-21T19:59:21.900Z,17.50
2022-09-21T20:01:55.922Z,17.40
2022-09-21T20:04:29.970Z,17.30
2022-09-21T20:07:03.098Z,17.40
2022-09-21T20:09:38.115Z,17.40
2022-09-21T20:12:17.650Z,17.30
2022-09-21T20:14:49.292Z,17.40
2022-09-21T20:17:22.068Z,17.30
2022-09-21T20:19:56.816Z,17.30
2022-09-21T20:22:34.199Z,17.30
2022-09-21T20:25:07.918Z,17.30
2022-09-21T20:27:39.712Z,17.40
2022-09-21T20:30:10.106Z,17.30
2022-09-21T20:32:39.760Z,17.30
2022-09-21T20:35:15.868Z,17.30
2022-09-21T20:37:44.167Z,17.30
2022-09-21T20:40:14.056Z,17.20
2022-09-21T20:42:43.113Z,17.20
2022-09-21T20:45:13.186Z,17.20
2022-09-21T20:47:41.201Z,17.20
2022-09-21T20:50:11.462Z,17.00
2022-09-21T20:52:41.361Z,17.10
2022-09-21T20:55:10.552Z,17.10
2022-09-21T20:57:40.360Z,17.00
2022-09-21T21:00:15.812Z,17.10
2022-09-21T21:02:44.143Z,17.00
2022-09-21T21:05:12.081Z,17.00
2022-09-21T21:07:43.321Z,17.00
2022-09-21T21:10:14.043Z,16.90
2022-09-21T21:12:43.389Z,16.90
2022-09-21T21:15:12.369Z,16.80
2022-09-21T21:17:41.038Z,16.90
2022-09-21T21:20:10.383Z,16.90
2022-09-21T21:22:38.303Z,16.80
2022-09-21T21:25:06.727Z,16.90
2022-09-21T21:27:35.772Z,16.90
2022-09-21T21:30:06.860Z,16.80
2022-09-21T21:32:35.291Z,16.80
2022-09-21T21:35:03.562Z,16.80
2022-09-21T21:37:31.557Z,16.80
2022-09-21T21:39:59.428Z,16.90
2022-09-21T21:42:29.552Z,16.80
2022-09-21T21:44:57.528Z,16.80
2022-09-21T21:47:42.040Z,16.70
2022-09-21T21:50:10.717Z,16.70
2022-09-21T21:52:38.885Z,16.80
2022-09-21T21:55:07.751Z,16.70
2022-09-21T21:57:35.700Z,16.60
2022-09-21T22:00:05.579Z,16.60
2022-09-21T22:02:35.114Z,16.60
2022-09-21T22:05:02.922Z,16.60
2022-09-21T22:07:30.632Z,16.50
2022-09-21T22:09:58.494Z,16.50
2022-09-21T22:12:26.320Z,16.60
2022-09-21T22:14:54.111Z,16.60
2022-09-21T22:17:21.825Z,16.60
2022-09-21T22:19:51.333Z,16.60
2022-09-21T22:22:19.265Z,16.50
2022-09-21T22:24:47.952Z,16.60
2022-09-21T22:27:16.337Z,16.50
2022-09-21T22:29:44.369Z,16.50
2022-09-21T22:32:12.134Z,16.50
2022-09-21T22:34:39.860Z,16.50
2022-09-21T22:37:08.956Z,16.50
2022-09-21T22:39:36.743Z,16.50
2022-09-21T22:42:05.071Z,16.50
2022-09-21T22:44:32.843Z,16.40
2022-09-21T22:47:00.568Z,16.50
2022-09-21T22:49:28.366Z,16.50
2022-09-21T22:51:56.145Z,16.50
2022-09-21T22:54:26.555Z,16.40
2022-09-21T22:56:54.285Z,16.50
2022-09-21T22:59:22.079Z,16.50
2022-09-21T23:01:49.843Z,16.50
2022-09-21T23:04:18.000Z,16.40
2022-09-21T23:06:46.300Z,16.50
2022-09-21T23:09:16.549Z,16.40
2022-09-21T23:11:48.028Z,16.30
2022-09-21T23:14:16.766Z,16.40
2022-09-21T23:16:45.036Z,16.40
2022-09-21T23:19:16.175Z,16.40
2022-09-21T23:21:45.385Z,16.40
2022-09-21T23:24:13.906Z,16.40
2022-09-21T23:26:41.799Z,16.40
2022-09-21T23:29:14.828Z,16.40
2022-09-21T23:31:45.300Z,16.40
2022-09-21T23:34:14.282Z,16.40
2022-09-21T23:36:43.157Z,16.40
2022-09-21T23:39:12.626Z,16.30
2022-09-21T23:41:40.546Z,16.20
2022-09-21T23:44:08.645Z,16.20
2022-09-21T23:46:39.554Z,16.10
2022-09-21T23:49:07.765Z,16.10
2022-09-21T23:51:35.815Z,16.10
2022-09-21T23:54:04.404Z,16.10
2022-09-21T23:56:32.881Z,16.20
2022-09-21T23:59:01.377Z,16.20
